sensor_id;sensor_type;location;lat;lon;timestamp;temperature;humidity
21445;DHT22;10883;51.946;20.140;2022-10-30T00:00:39;13.10;99.90
21445;DHT22;10883;51.946;20.140;2022-10-30T00:03:08;13.00;99.90
21445;DHT22;10883;51.946;20.140;2022-10-30T00:05:34;12.90;99.90
21445;DHT22;10883;51.946;20.140;2022-10-30T00:08:00;12.90;99.90
21445;DHT22;10883;51.946;20.140;2022-10-30T00:10:26;12.90;99.90
21445;DHT22;10883;51.946;20.140;2022-10-30T00:12:52;12.90;99.90
21445;DHT22;10883;51.946;20.140;2022-10-30T00:15:18;12.80;99.90
21445;DHT22;10883;51.946;20.140;2022-10-30T00:17:44;12.80;99.90
21445;DHT22;10883;51.946;20.140;2022-10-30T00:20:10;12.80;99.90
21445;DHT22;10883;51.946;20.140;2022-10-30T00:22:36;12.80;99.90
21445;DHT22;10883;51.946;20.140;2022-10-30T00:25:05;12.80;99.90
21445;DHT22;10883;51.946;20.140;2022-10-30T00:27:31;12.80;99.90
21445;DHT22;10883;51.946;20.140;2022-10-30T00:29:57;12.80;99.90
21445;DHT22;10883;51.946;20.140;2022-10-30T00:32:22;12.80;99.90
21445;DHT22;10883;51.946;20.140;2022-10-30T00:34:48;12.80;99.90
21445;DHT22;10883;51.946;20.140;2022-10-30T00:37:14;12.70;99.90
21445;DHT22;10883;51.946;20.140;2022-10-30T00:39:40;12.60;99.90
21445;DHT22;10883;51.946;20.140;2022-10-30T00:42:07;12.60;99.90
21445;DHT22;10883;51.946;20.140;2022-10-30T00:47:09;12.60;99.90
21445;DHT22;10883;51.946;20.140;2022-10-30T00:49:40;12.60;99.90
21445;DHT22;10883;51.946;20.140;2022-10-30T00:52:09;12.50;99.90
21445;DHT22;10883;51.946;20.140;2022-10-30T00:54:36;12.60;99.90
21445;DHT22;10883;51.946;20.140;2022-10-30T00:57:04;12.50;99.90
21445;DHT22;10883;51.946;20.140;2022-10-30T00:59:32;12.60;99.90
21445;DHT22;10883;51.946;20.140;2022-10-30T01:02:00;12.50;99.90
21445;DHT22;10883;51.946;20.140;2022-10-30T01:04:27;12.50;99.90
21445;DHT22;10883;51.946;20.140;2022-10-30T01:06:53;12.50;99.90
21445;DHT22;10883;51.946;20.140;2022-10-30T01:09:19;12.50;99.90
21445;DHT22;10883;51.946;20.140;2022-10-30T01:11:46;12.50;99.90
21445;DHT22;10883;51.946;20.140;2022-10-30T01:14:14;12.60;99.90
21445;DHT22;10883;51.946;20.140;2022-10-30T01:19:47;12.60;99.90
21445;DHT22;10883;51.946;20.140;2022-10-30T01:25:23;12.60;99.90
21445;DHT22;10883;51.946;20.140;2022-10-30T01:30:58;12.50;99.90
21445;DHT22;10883;51.946;20.140;2022-10-30T01:38:49;12.40;99.90
21445;DHT22;10883;51.946;20.140;2022-10-30T01:41:17;12.50;99.90
21445;DHT22;10883;51.946;20.140;2022-10-30T01:43:45;12.50;99.90
21445;DHT22;10883;51.946;20.140;2022-10-30T01:51:49;12.50;99.90
21445;DHT22;10883;51.946;20.140;2022-10-30T01:54:32;12.50;99.90
21445;DHT22;10883;51.946;20.140;2022-10-30T01:57:13;12.60;99.90
21445;DHT22;10883;51.946;20.140;2022-10-30T01:59:48;12.60;99.90
21445;DHT22;10883;51.946;20.140;2022-10-30T02:02:16;12.70;99.90
21445;DHT22;10883;51.946;20.140;2022-10-30T02:04:42;12.70;99.90
21445;DHT22;10883;51.946;20.140;2022-10-30T02:07:09;12.80;99.90
21445;DHT22;10883;51.946;20.140;2022-10-30T02:09:36;12.90;99.90
21445;DHT22;10883;51.946;20.140;2022-10-30T02:12:02;12.90;99.90
21445;DHT22;10883;51.946;20.140;2022-10-30T02:14:46;13.00;99.90
21445;DHT22;10883;51.946;20.140;2022-10-30T02:17:13;13.00;99.90
21445;DHT22;10883;51.946;20.140;2022-10-30T02:19:39;13.10;99.90
21445;DHT22;10883;51.946;20.140;2022-10-30T02:22:05;13.10;99.90
21445;DHT22;10883;51.946;20.140;2022-10-30T02:24:31;13.10;99.90
21445;DHT22;10883;51.946;20.140;2022-10-30T02:26:57;13.20;99.90
21445;DHT22;10883;51.946;20.140;2022-10-30T02:29:23;13.20;99.90
21445;DHT22;10883;51.946;20.140;2022-10-30T02:31:48;13.20;99.90
21445;DHT22;10883;51.946;20.140;2022-10-30T02:34:15;13.30;99.90
21445;DHT22;10883;51.946;20.140;2022-10-30T02:36:41;13.20;99.90
21445;DHT22;10883;51.946;20.140;2022-10-30T02:39:07;13.20;99.90
21445;DHT22;10883;51.946;20.140;2022-10-30T02:41:33;13.30;99.90
21445;DHT22;10883;51.946;20.140;2022-10-30T02:43:58;13.30;99.90
21445;DHT22;10883;51.946;20.140;2022-10-30T02:46:24;13.30;99.90
21445;DHT22;10883;51.946;20.140;2022-10-30T02:48:50;13.30;99.90
21445;DHT22;10883;51.946;20.140;2022-10-30T02:51:16;13.30;99.90
21445;DHT22;10883;51.946;20.140;2022-10-30T02:53:42;13.30;99.90
21445;DHT22;10883;51.946;20.140;2022-10-30T02:56:10;13.30;99.90
21445;DHT22;10883;51.946;20.140;2022-10-30T02:58:37;13.30;99.90
21445;DHT22;10883;51.946;20.140;2022-10-30T03:01:11;13.30;99.90
21445;DHT22;10883;51.946;20.140;2022-10-30T03:03:38;13.30;99.90
21445;DHT22;10883;51.946;20.140;2022-10-30T03:06:05;13.20;99.90
21445;DHT22;10883;51.946;20.140;2022-10-30T03:08:32;13.20;99.90
21445;DHT22;10883;51.946;20.140;2022-10-30T03:11:03;13.20;99.90
21445;DHT22;10883;51.946;20.140;2022-10-30T03:13:31;13.20;99.90
21445;DHT22;10883;51.946;20.140;2022-10-30T03:16:05;13.20;99.90
21445;DHT22;10883;51.946;20.140;2022-10-30T03:18:31;13.20;99.90
21445;DHT22;10883;51.946;20.140;2022-10-30T03:21:02;13.20;99.90
21445;DHT22;10883;51.946;20.140;2022-10-30T03:23:28;13.20;99.90
21445;DHT22;10883;51.946;20.140;2022-10-30T03:25:56;13.20;99.90
21445;DHT22;10883;51.946;20.140;2022-10-30T03:28:23;13.10;99.90
21445;DHT22;10883;51.946;20.140;2022-10-30T03:30:49;13.10;99.90
21445;DHT22;10883;51.946;20.140;2022-10-30T03:33:18;13.10;99.90
21445;DHT22;10883;51.946;20.140;2022-10-30T03:35:44;13.10;99.90
21445;DHT22;10883;51.946;20.140;2022-10-30T03:38:13;13.00;99.90
21445;DHT22;10883;51.946;20.140;2022-10-30T03:40:39;13.00;99.90
21445;DHT22;10883;51.946;20.140;2022-10-30T03:43:05;12.90;99.90
21445;DHT22;10883;51.946;20.140;2022-10-30T03:45:32;13.00;99.90
21445;DHT22;10883;51.946;20.140;2022-10-30T03:48:02;12.90;99.90
21445;DHT22;10883;51.946;20.140;2022-10-30T03:50:28;13.00;99.90
21445;DHT22;10883;51.946;20.140;2022-10-30T03:52:54;13.00;99.90
21445;DHT22;10883;51.946;20.140;2022-10-30T03:55:21;13.00;99.90
21445;DHT22;10883;51.946;20.140;2022-10-30T03:57:46;13.00;99.90
21445;DHT22;10883;51.946;20.140;2022-10-30T04:00:13;13.10;99.90
21445;DHT22;10883;51.946;20.140;2022-10-30T04:02:44;13.10;99.90
21445;DHT22;10883;51.946;20.140;2022-10-30T04:05:10;13.10;99.90
21445;DHT22;10883;51.946;20.140;2022-10-30T04:07:36;13.10;99.90
21445;DHT22;10883;51.946;20.140;2022-10-30T04:10:02;13.20;99.90
21445;DHT22;10883;51.946;20.140;2022-10-30T04:12:28;13.20;99.90
21445;DHT22;10883;51.946;20.140;2022-10-30T04:14:53;13.10;99.90
21445;DHT22;10883;51.946;20.140;2022-10-30T04:17:21;13.20;99.90
21445;DHT22;10883;51.946;20.140;2022-10-30T04:19:47;13.20;99.90
21445;DHT22;10883;51.946;20.140;2022-10-30T04:22:12;13.20;99.90
21445;DHT22;10883;51.946;20.140;2022-10-30T04:24:38;13.30;99.90
21445;DHT22;10883;51.946;20.140;2022-10-30T04:27:04;13.40;99.90
21445;DHT22;10883;51.946;20.140;2022-10-30T04:29:30;13.30;99.90
21445;DHT22;10883;51.946;20.140;2022-10-30T04:31:56;13.30;99.90
21445;DHT22;10883;51.946;20.140;2022-10-30T04:34:22;13.30;99.90
21445;DHT22;10883;51.946;20.140;2022-10-30T04:36:47;13.30;99.90
21445;DHT22;10883;51.946;20.140;2022-10-30T04:39:13;13.30;99.90
21445;DHT22;10883;51.946;20.140;2022-10-30T04:41:39;13.30;99.90
21445;DHT22;10883;51.946;20.140;2022-10-30T04:44:05;13.40;99.90
21445;DHT22;10883;51.946;20.140;2022-10-30T04:46:31;13.40;99.90
21445;DHT22;10883;51.946;20.140;2022-10-30T04:48:57;13.40;99.90
21445;DHT22;10883;51.946;20.140;2022-10-30T04:51:23;13.40;99.90
21445;DHT22;10883;51.946;20.140;2022-10-30T04:53:49;13.40;99.90
21445;DHT22;10883;51.946;20.140;2022-10-30T04:56:14;13.40;99.90
21445;DHT22;10883;51.946;20.140;2022-10-30T04:58:41;13.30;99.90
21445;DHT22;10883;51.946;20.140;2022-10-30T05:01:07;13.20;99.90
21445;DHT22;10883;51.946;20.140;2022-10-30T05:03:33;13.20;99.90
21445;DHT22;10883;51.946;20.140;2022-10-30T05:06:05;13.20;99.90
21445;DHT22;10883;51.946;20.140;2022-10-30T05:08:31;13.10;99.90
21445;DHT22;10883;51.946;20.140;2022-10-30T05:10:57;13.00;99.90
21445;DHT22;10883;51.946;20.140;2022-10-30T05:13:23;13.10;99.90
21445;DHT22;10883;51.946;20.140;2022-10-30T05:15:49;13.00;99.90
21445;DHT22;10883;51.946;20.140;2022-10-30T05:18:14;13.00;99.90
21445;DHT22;10883;51.946;20.140;2022-10-30T05:20:40;13.00;99.90
21445;DHT22;10883;51.946;20.140;2022-10-30T05:23:06;13.00;99.90
21445;DHT22;10883;51.946;20.140;2022-10-30T05:25:32;13.00;99.90
21445;DHT22;10883;51.946;20.140;2022-10-30T05:28:02;13.00;99.90
21445;DHT22;10883;51.946;20.140;2022-10-30T05:30:29;13.00;99.90
21445;DHT22;10883;51.946;20.140;2022-10-30T05:33:04;12.90;99.90
21445;DHT22;10883;51.946;20.140;2022-10-30T05:35:30;12.90;99.90
21445;DHT22;10883;51.946;20.140;2022-10-30T05:38:01;12.90;99.90
21445;DHT22;10883;51.946;20.140;2022-10-30T05:40:27;13.00;99.90
21445;DHT22;10883;51.946;20.140;2022-10-30T05:42:53;12.90;99.90
21445;DHT22;10883;51.946;20.140;2022-10-30T05:45:19;12.90;99.90
21445;DHT22;10883;51.946;20.140;2022-10-30T05:47:55;13.00;99.90
21445;DHT22;10883;51.946;20.140;2022-10-30T05:50:22;12.90;99.90
21445;DHT22;10883;51.946;20.140;2022-10-30T05:52:47;13.00;99.90
21445;DHT22;10883;51.946;20.140;2022-10-30T05:55:13;12.90;99.90
21445;DHT22;10883;51.946;20.140;2022-10-30T05:57:39;12.90;99.90
21445;DHT22;10883;51.946;20.140;2022-10-30T06:00:05;12.90;99.90
21445;DHT22;10883;51.946;20.140;2022-10-30T06:02:32;12.90;99.90
21445;DHT22;10883;51.946;20.140;2022-10-30T06:04:57;13.00;99.90
21445;DHT22;10883;51.946;20.140;2022-10-30T06:07:23;13.00;99.90
21445;DHT22;10883;51.946;20.140;2022-10-30T06:09:49;13.00;99.90
21445;DHT22;10883;51.946;20.140;2022-10-30T06:12:15;13.10;99.90
21445;DHT22;10883;51.946;20.140;2022-10-30T06:14:40;13.10;99.90
21445;DHT22;10883;51.946;20.140;2022-10-30T06:17:06;13.10;99.90
21445;DHT22;10883;51.946;20.140;2022-10-30T06:19:32;13.10;99.90
21445;DHT22;10883;51.946;20.140;2022-10-30T06:21:57;13.20;99.90
21445;DHT22;10883;51.946;20.140;2022-10-30T06:24:23;13.30;99.90
21445;DHT22;10883;51.946;20.140;2022-10-30T06:26:49;13.40;99.90
21445;DHT22;10883;51.946;20.140;2022-10-30T06:29:16;13.50;99.90
21445;DHT22;10883;51.946;20.140;2022-10-30T06:31:42;13.60;99.90
21445;DHT22;10883;51.946;20.140;2022-10-30T06:34:07;13.60;99.90
21445;DHT22;10883;51.946;20.140;2022-10-30T06:36:33;13.70;99.90
21445;DHT22;10883;51.946;20.140;2022-10-30T06:38:59;13.70;99.90
21445;DHT22;10883;51.946;20.140;2022-10-30T06:41:24;13.80;99.90
21445;DHT22;10883;51.946;20.140;2022-10-30T06:43:50;13.90;99.90
21445;DHT22;10883;51.946;20.140;2022-10-30T06:46:16;13.90;99.90
21445;DHT22;10883;51.946;20.140;2022-10-30T06:48:42;13.90;99.90
21445;DHT22;10883;51.946;20.140;2022-10-30T06:51:08;13.80;99.90
21445;DHT22;10883;51.946;20.140;2022-10-30T06:53:34;13.80;99.90
21445;DHT22;10883;51.946;20.140;2022-10-30T06:56:01;13.80;99.90
21445;DHT22;10883;51.946;20.140;2022-10-30T06:58:28;13.80;99.90
21445;DHT22;10883;51.946;20.140;2022-10-30T07:00:55;13.80;99.90
21445;DHT22;10883;51.946;20.140;2022-10-30T07:03:21;13.90;99.90
21445;DHT22;10883;51.946;20.140;2022-10-30T07:05:46;14.00;99.90
21445;DHT22;10883;51.946;20.140;2022-10-30T07:08:12;14.00;99.90
21445;DHT22;10883;51.946;20.140;2022-10-30T07:10:38;14.10;99.90
21445;DHT22;10883;51.946;20.140;2022-10-30T07:13:04;14.10;99.90
21445;DHT22;10883;51.946;20.140;2022-10-30T07:15:30;14.20;99.90
21445;DHT22;10883;51.946;20.140;2022-10-30T07:18:01;14.20;99.90
21445;DHT22;10883;51.946;20.140;2022-10-30T07:20:32;14.20;99.90
21445;DHT22;10883;51.946;20.140;2022-10-30T07:22:58;14.20;99.90
21445;DHT22;10883;51.946;20.140;2022-10-30T07:25:24;14.20;99.90
21445;DHT22;10883;51.946;20.140;2022-10-30T07:27:51;14.40;99.90
21445;DHT22;10883;51.946;20.140;2022-10-30T07:30:19;14.50;99.90
21445;DHT22;10883;51.946;20.140;2022-10-30T07:32:49;14.60;99.90
21445;DHT22;10883;51.946;20.140;2022-10-30T07:35:20;14.60;99.90
21445;DHT22;10883;51.946;20.140;2022-10-30T07:37:46;14.80;99.90
21445;DHT22;10883;51.946;20.140;2022-10-30T07:40:11;14.90;99.90
21445;DHT22;10883;51.946;20.140;2022-10-30T07:42:37;14.90;99.90
21445;DHT22;10883;51.946;20.140;2022-10-30T07:45:03;15.00;99.90
21445;DHT22;10883;51.946;20.140;2022-10-30T07:47:29;14.90;99.90
21445;DHT22;10883;51.946;20.140;2022-10-30T07:49:55;14.80;99.90
21445;DHT22;10883;51.946;20.140;2022-10-30T07:52:20;14.80;99.90
21445;DHT22;10883;51.946;20.140;2022-10-30T07:54:46;14.80;99.90
21445;DHT22;10883;51.946;20.140;2022-10-30T07:57:12;14.90;99.90
21445;DHT22;10883;51.946;20.140;2022-10-30T07:59:38;15.10;99.90
21445;DHT22;10883;51.946;20.140;2022-10-30T08:02:03;15.10;99.90
21445;DHT22;10883;51.946;20.140;2022-10-30T08:04:29;15.10;99.90
21445;DHT22;10883;51.946;20.140;2022-10-30T08:06:55;15.20;99.90
21445;DHT22;10883;51.946;20.140;2022-10-30T08:09:20;15.20;99.90
21445;DHT22;10883;51.946;20.140;2022-10-30T08:11:46;15.30;99.90
21445;DHT22;10883;51.946;20.140;2022-10-30T08:14:12;15.40;99.90
21445;DHT22;10883;51.946;20.140;2022-10-30T08:16:38;15.50;99.90
21445;DHT22;10883;51.946;20.140;2022-10-30T08:19:04;15.70;99.90
21445;DHT22;10883;51.946;20.140;2022-10-30T08:21:30;15.90;99.90
21445;DHT22;10883;51.946;20.140;2022-10-30T08:23:56;16.10;99.90
21445;DHT22;10883;51.946;20.140;2022-10-30T08:26:21;16.40;99.90
21445;DHT22;10883;51.946;20.140;2022-10-30T08:28:47;16.60;99.90
21445;DHT22;10883;51.946;20.140;2022-10-30T08:31:13;16.70;99.90
21445;DHT22;10883;51.946;20.140;2022-10-30T08:33:40;16.90;99.90
21445;DHT22;10883;51.946;20.140;2022-10-30T08:36:06;17.10;99.90
21445;DHT22;10883;51.946;20.140;2022-10-30T08:38:32;17.50;99.90
21445;DHT22;10883;51.946;20.140;2022-10-30T08:40:58;17.50;99.90
21445;DHT22;10883;51.946;20.140;2022-10-30T08:43:26;17.80;99.90
21445;DHT22;10883;51.946;20.140;2022-10-30T08:45:52;18.70;99.90
21445;DHT22;10883;51.946;20.140;2022-10-30T08:48:21;21.20;99.90
21445;DHT22;10883;51.946;20.140;2022-10-30T08:50:50;23.80;99.90
21445;DHT22;10883;51.946;20.140;2022-10-30T08:53:17;25.40;99.90
21445;DHT22;10883;51.946;20.140;2022-10-30T08:55:43;25.10;99.90
21445;DHT22;10883;51.946;20.140;2022-10-30T08:58:09;24.60;99.90
21445;DHT22;10883;51.946;20.140;2022-10-30T09:00:35;24.10;99.90
21445;DHT22;10883;51.946;20.140;2022-10-30T09:03:01;23.40;99.90
21445;DHT22;10883;51.946;20.140;2022-10-30T09:05:27;22.70;99.90
21445;DHT22;10883;51.946;20.140;2022-10-30T09:07:56;21.80;99.90
21445;DHT22;10883;51.946;20.140;2022-10-30T09:10:25;21.00;99.90
21445;DHT22;10883;51.946;20.140;2022-10-30T09:12:55;20.30;99.90
21445;DHT22;10883;51.946;20.140;2022-10-30T09:15:21;19.60;99.90
21445;DHT22;10883;51.946;20.140;2022-10-30T09:17:53;19.10;99.90
21445;DHT22;10883;51.946;20.140;2022-10-30T09:20:19;19.00;99.90
21445;DHT22;10883;51.946;20.140;2022-10-30T09:22:45;19.10;99.90
21445;DHT22;10883;51.946;20.140;2022-10-30T09:25:11;19.10;99.90
21445;DHT22;10883;51.946;20.140;2022-10-30T09:27:38;19.30;99.90
21445;DHT22;10883;51.946;20.140;2022-10-30T09:30:04;19.50;99.90
21445;DHT22;10883;51.946;20.140;2022-10-30T09:32:30;19.50;99.90
21445;DHT22;10883;51.946;20.140;2022-10-30T09:34:56;20.00;99.90
21445;DHT22;10883;51.946;20.140;2022-10-30T09:37:22;20.50;99.90
21445;DHT22;10883;51.946;20.140;2022-10-30T09:39:48;21.50;99.90
21445;DHT22;10883;51.946;20.140;2022-10-30T09:42:30;21.80;99.90
21445;DHT22;10883;51.946;20.140;2022-10-30T09:48:14;21.40;99.90
21445;DHT22;10883;51.946;20.140;2022-10-30T09:56:31;20.10;99.90
21445;DHT22;10883;51.946;20.140;2022-10-30T10:01:53;19.10;99.90
21445;DHT22;10883;51.946;20.140;2022-10-30T10:04:42;18.60;99.90
21445;DHT22;10883;51.946;20.140;2022-10-30T10:07:36;18.10;99.90
21445;DHT22;10883;51.946;20.140;2022-10-30T10:10:08;17.80;99.90
21445;DHT22;10883;51.946;20.140;2022-10-30T10:12:42;17.60;99.90
21445;DHT22;10883;51.946;20.140;2022-10-30T10:15:20;17.40;99.90
21445;DHT22;10883;51.946;20.140;2022-10-30T10:17:50;17.30;99.90
21445;DHT22;10883;51.946;20.140;2022-10-30T10:20:32;17.30;99.90
21445;DHT22;10883;51.946;20.140;2022-10-30T10:23:05;17.20;99.90
21445;DHT22;10883;51.946;20.140;2022-10-30T10:25:38;17.20;99.90
21445;DHT22;10883;51.946;20.140;2022-10-30T10:41:34;18.00;99.90
21445;DHT22;10883;51.946;20.140;2022-10-30T10:44:25;18.10;99.90
21445;DHT22;10883;51.946;20.140;2022-10-30T10:50:47;18.70;99.90
21445;DHT22;10883;51.946;20.140;2022-10-30T10:52:48;18.80;99.90
21445;DHT22;10883;51.946;20.140;2022-10-30T10:55:22;19.00;99.90
21445;DHT22;10883;51.946;20.140;2022-10-30T10:57:51;19.00;99.90
21445;DHT22;10883;51.946;20.140;2022-10-30T11:00:22;19.30;99.90
21445;DHT22;10883;51.946;20.140;2022-10-30T11:11:05;19.30;99.90
21445;DHT22;10883;51.946;20.140;2022-10-30T11:13:40;19.40;99.90
21445;DHT22;10883;51.946;20.140;2022-10-30T11:16:37;19.30;99.90
21445;DHT22;10883;51.946;20.140;2022-10-30T11:19:08;19.70;99.90
21445;DHT22;10883;51.946;20.140;2022-10-30T11:21:38;20.30;99.90
21445;DHT22;10883;51.946;20.140;2022-10-30T11:26:57;21.10;99.90
21445;DHT22;10883;51.946;20.140;2022-10-30T11:29:26;21.60;99.90
21445;DHT22;10883;51.946;20.140;2022-10-30T11:32:02;21.80;99.90
21445;DHT22;10883;51.946;20.140;2022-10-30T11:34:37;21.60;99.90
21445;DHT22;10883;51.946;20.140;2022-10-30T11:37:06;21.30;99.90
21445;DHT22;10883;51.946;20.140;2022-10-30T11:40:05;21.60;99.90
21445;DHT22;10883;51.946;20.140;2022-10-30T11:42:32;21.70;99.90
21445;DHT22;10883;51.946;20.140;2022-10-30T11:44:59;22.00;99.90
21445;DHT22;10883;51.946;20.140;2022-10-30T11:47:34;22.20;99.90
21445;DHT22;10883;51.946;20.140;2022-10-30T11:50:05;22.80;99.90
21445;DHT22;10883;51.946;20.140;2022-10-30T11:52:38;23.50;99.90
21445;DHT22;10883;51.946;20.140;2022-10-30T11:55:30;23.30;99.90
21445;DHT22;10883;51.946;20.140;2022-10-30T11:57:57;23.00;99.90
21445;DHT22;10883;51.946;20.140;2022-10-30T12:00:26;22.50;99.90
21445;DHT22;10883;51.946;20.140;2022-10-30T12:02:54;21.90;99.90
21445;DHT22;10883;51.946;20.140;2022-10-30T12:05:31;21.00;99.90
21445;DHT22;10883;51.946;20.140;2022-10-30T12:10:38;20.30;99.90
21445;DHT22;10883;51.946;20.140;2022-10-30T12:13:15;20.40;99.90
21445;DHT22;10883;51.946;20.140;2022-10-30T12:15:43;20.90;99.90
21445;DHT22;10883;51.946;20.140;2022-10-30T12:18:21;22.90;99.90
21445;DHT22;10883;51.946;20.140;2022-10-30T12:20:53;24.40;99.90
21445;DHT22;10883;51.946;20.140;2022-10-30T12:23:21;24.60;99.90
21445;DHT22;10883;51.946;20.140;2022-10-30T12:25:52;24.30;99.90
21445;DHT22;10883;51.946;20.140;2022-10-30T12:28:20;23.80;99.90
21445;DHT22;10883;51.946;20.140;2022-10-30T12:30:53;23.00;99.90
21445;DHT22;10883;51.946;20.140;2022-10-30T12:36:14;21.40;99.90
21445;DHT22;10883;51.946;20.140;2022-10-30T12:38:49;21.50;99.90
21445;DHT22;10883;51.946;20.140;2022-10-30T12:41:31;21.90;99.90
21445;DHT22;10883;51.946;20.140;2022-10-30T12:44:15;22.60;99.90
21445;DHT22;10883;51.946;20.140;2022-10-30T12:50:00;21.70;99.90
21445;DHT22;10883;51.946;20.140;2022-10-30T12:52:36;20.60;99.90
21445;DHT22;10883;51.946;20.140;2022-10-30T12:55:18;19.90;99.90
21445;DHT22;10883;51.946;20.140;2022-10-30T12:57:57;19.50;99.90
21445;DHT22;10883;51.946;20.140;2022-10-30T13:00:27;19.10;99.90
21445;DHT22;10883;51.946;20.140;2022-10-30T13:03:34;19.10;99.90
21445;DHT22;10883;51.946;20.140;2022-10-30T13:06:09;19.30;99.90
21445;DHT22;10883;51.946;20.140;2022-10-30T13:11:39;20.30;99.90
21445;DHT22;10883;51.946;20.140;2022-10-30T13:17:19;20.80;99.90
21445;DHT22;10883;51.946;20.140;2022-10-30T13:19:46;21.50;99.90
21445;DHT22;10883;51.946;20.140;2022-10-30T13:22:22;21.50;99.90
21445;DHT22;10883;51.946;20.140;2022-10-30T13:24:59;21.40;99.90
21445;DHT22;10883;51.946;20.140;2022-10-30T13:30:13;20.80;99.90
21445;DHT22;10883;51.946;20.140;2022-10-30T13:35:45;20.30;99.90
21445;DHT22;10883;51.946;20.140;2022-10-30T13:41:15;19.60;99.90
21445;DHT22;10883;51.946;20.140;2022-10-30T13:46:46;19.00;99.90
21445;DHT22;10883;51.946;20.140;2022-10-30T13:52:12;18.30;99.90
21445;DHT22;10883;51.946;20.140;2022-10-30T13:55:03;18.10;99.90
21445;DHT22;10883;51.946;20.140;2022-10-30T13:57:44;18.10;99.90
21445;DHT22;10883;51.946;20.140;2022-10-30T14:00:28;17.90;99.90
21445;DHT22;10883;51.946;20.140;2022-10-30T14:06:11;17.70;99.90
21445;DHT22;10883;51.946;20.140;2022-10-30T14:11:44;17.40;99.90
21445;DHT22;10883;51.946;20.140;2022-10-30T14:16:41;17.00;99.90
21445;DHT22;10883;51.946;20.140;2022-10-30T14:19:12;17.00;99.90
21445;DHT22;10883;51.946;20.140;2022-10-30T14:21:54;17.00;99.90
21445;DHT22;10883;51.946;20.140;2022-10-30T14:24:31;16.90;99.90
21445;DHT22;10883;51.946;20.140;2022-10-30T14:37:16;16.40;99.90
21445;DHT22;10883;51.946;20.140;2022-10-30T14:39:47;16.20;99.90
21445;DHT22;10883;51.946;20.140;2022-10-30T14:56:08;15.90;99.90
21445;DHT22;10883;51.946;20.140;2022-10-30T15:04:33;15.60;99.90
21445;DHT22;10883;51.946;20.140;2022-10-30T15:15:44;15.00;99.90
21445;DHT22;10883;51.946;20.140;2022-10-30T15:18:17;14.80;99.90
21445;DHT22;10883;51.946;20.140;2022-10-30T15:20:52;14.60;99.90
21445;DHT22;10883;51.946;20.140;2022-10-30T15:23:28;14.40;99.90
21445;DHT22;10883;51.946;20.140;2022-10-30T15:25:58;14.30;99.90
21445;DHT22;10883;51.946;20.140;2022-10-30T15:28:27;14.10;99.90
21445;DHT22;10883;51.946;20.140;2022-10-30T15:31:18;14.00;99.90
21445;DHT22;10883;51.946;20.140;2022-10-30T15:33:45;13.90;99.90
21445;DHT22;10883;51.946;20.140;2022-10-30T15:36:39;13.70;99.90
21445;DHT22;10883;51.946;20.140;2022-10-30T15:39:13;13.80;99.90
21445;DHT22;10883;51.946;20.140;2022-10-30T15:41:51;13.90;99.90
21445;DHT22;10883;51.946;20.140;2022-10-30T15:44:32;13.90;99.90
21445;DHT22;10883;51.946;20.140;2022-10-30T15:47:01;13.70;99.90
21445;DHT22;10883;51.946;20.140;2022-10-30T15:49:37;13.80;99.90
21445;DHT22;10883;51.946;20.140;2022-10-30T15:52:15;13.90;99.90
21445;DHT22;10883;51.946;20.140;2022-10-30T15:54:44;13.60;99.90
21445;DHT22;10883;51.946;20.140;2022-10-30T15:57:30;13.40;99.90
21445;DHT22;10883;51.946;20.140;2022-10-30T15:59:59;13.20;99.90
21445;DHT22;10883;51.946;20.140;2022-10-30T16:02:29;13.10;99.90
21445;DHT22;10883;51.946;20.140;2022-10-30T16:04:55;13.00;99.90
21445;DHT22;10883;51.946;20.140;2022-10-30T16:07:24;12.90;99.90
21445;DHT22;10883;51.946;20.140;2022-10-30T16:09:57;12.80;99.90
21445;DHT22;10883;51.946;20.140;2022-10-30T16:12:29;12.60;99.90
21445;DHT22;10883;51.946;20.140;2022-10-30T16:14:57;12.50;99.90
21445;DHT22;10883;51.946;20.140;2022-10-30T16:17:25;12.40;99.90
21445;DHT22;10883;51.946;20.140;2022-10-30T16:19:53;12.30;99.90
21445;DHT22;10883;51.946;20.140;2022-10-30T16:22:26;12.20;99.90
21445;DHT22;10883;51.946;20.140;2022-10-30T16:24:54;12.10;99.90
21445;DHT22;10883;51.946;20.140;2022-10-30T16:27:23;12.00;99.90
21445;DHT22;10883;51.946;20.140;2022-10-30T16:29:54;12.00;99.90
21445;DHT22;10883;51.946;20.140;2022-10-30T16:32:24;11.90;99.90
21445;DHT22;10883;51.946;20.140;2022-10-30T16:34:57;11.80;99.90
21445;DHT22;10883;51.946;20.140;2022-10-30T16:37:31;11.60;99.90
21445;DHT22;10883;51.946;20.140;2022-10-30T16:40:00;11.50;99.90
21445;DHT22;10883;51.946;20.140;2022-10-30T16:42:27;11.30;99.90
21445;DHT22;10883;51.946;20.140;2022-10-30T16:45:58;11.20;99.90
21445;DHT22;10883;51.946;20.140;2022-10-30T16:48:01;11.10;99.90
21445;DHT22;10883;51.946;20.140;2022-10-30T16:50:36;11.10;99.90
21445;DHT22;10883;51.946;20.140;2022-10-30T16:53:22;11.00;99.90
21445;DHT22;10883;51.946;20.140;2022-10-30T16:55:49;10.90;99.90
21445;DHT22;10883;51.946;20.140;2022-10-30T16:58:16;10.90;99.90
21445;DHT22;10883;51.946;20.140;2022-10-30T17:01:01;10.80;99.90
21445;DHT22;10883;51.946;20.140;2022-10-30T17:03:31;10.80;99.90
21445;DHT22;10883;51.946;20.140;2022-10-30T17:06:04;10.70;99.90
21445;DHT22;10883;51.946;20.140;2022-10-30T17:08:38;10.80;99.90
21445;DHT22;10883;51.946;20.140;2022-10-30T17:11:08;10.70;99.90
21445;DHT22;10883;51.946;20.140;2022-10-30T17:13:55;10.70;99.90
21445;DHT22;10883;51.946;20.140;2022-10-30T17:16:24;10.60;99.90
21445;DHT22;10883;51.946;20.140;2022-10-30T17:18:52;10.50;99.90
21445;DHT22;10883;51.946;20.140;2022-10-30T17:21:23;10.30;99.90
21445;DHT22;10883;51.946;20.140;2022-10-30T17:23:52;10.30;99.90
21445;DHT22;10883;51.946;20.140;2022-10-30T17:26:19;10.20;99.90
21445;DHT22;10883;51.946;20.140;2022-10-30T17:28:45;10.40;99.90
21445;DHT22;10883;51.946;20.140;2022-10-30T17:36:31;10.10;99.90
21445;DHT22;10883;51.946;20.140;2022-10-30T17:38:56;10.00;99.90
21445;DHT22;10883;51.946;20.140;2022-10-30T17:41:22;9.90;99.90
21445;DHT22;10883;51.946;20.140;2022-10-30T17:43:54;9.80;99.90
21445;DHT22;10883;51.946;20.140;2022-10-30T17:46:24;9.70;99.90
21445;DHT22;10883;51.946;20.140;2022-10-30T17:48:50;9.70;99.90
21445;DHT22;10883;51.946;20.140;2022-10-30T17:51:16;9.60;99.90
21445;DHT22;10883;51.946;20.140;2022-10-30T17:53:42;9.50;99.90
21445;DHT22;10883;51.946;20.140;2022-10-30T17:56:32;9.50;99.90